sensor_id;sensor_type;location;lat;lon;timestamp;P1;durP1;ratioP1;P2;durP2;ratioP2
45962;SDS011;31669;49.892;20.818;2022-09-03T00:03:11;3.38;;;1.58;;
45962;SDS011;31669;49.892;20.818;2022-09-03T00:13:26;2.13;;;0.82;;
45962;SDS011;31669;49.892;20.818;2022-09-03T00:18:29;2.15;;;1.33;;
45962;SDS011;31669;49.892;20.818;2022-09-03T00:23:30;2.40;;;1.38;;
45962;SDS011;31669;49.892;20.818;2022-09-03T00:28:45;6.50;;;1.65;;
45962;SDS011;31669;49.892;20.818;2022-09-03T00:33:47;1.27;;;1.10;;
45962;SDS011;31669;49.892;20.818;2022-09-03T00:38:48;4.90;;;1.45;;
45962;SDS011;31669;49.892;20.818;2022-09-03T00:43:54;2.00;;;0.82;;
45962;SDS011;31669;49.892;20.818;2022-09-03T00:49:09;1.23;;;0.80;;
45962;SDS011;31669;49.892;20.818;2022-09-03T00:59:27;1.60;;;1.13;;
45962;SDS011;31669;49.892;20.818;2022-09-03T01:04:36;3.22;;;1.05;;
45962;SDS011;31669;49.892;20.818;2022-09-03T01:10:03;2.10;;;1.55;;
45962;SDS011;31669;49.892;20.818;2022-09-03T01:15:07;2.35;;;1.48;;
45962;SDS011;31669;49.892;20.818;2022-09-03T01:20:13;1.58;;;1.27;;
45962;SDS011;31669;49.892;20.818;2022-09-03T01:25:37;6.22;;;1.65;;
45962;SDS011;31669;49.892;20.818;2022-09-03T01:30:41;4.37;;;1.63;;
45962;SDS011;31669;49.892;20.818;2022-09-03T01:35:47;3.15;;;1.17;;
45962;SDS011;31669;49.892;20.818;2022-09-03T01:40:58;3.50;;;1.35;;
45962;SDS011;31669;49.892;20.818;2022-09-03T01:46:24;4.03;;;1.75;;
45962;SDS011;31669;49.892;20.818;2022-09-03T01:51:29;4.20;;;1.83;;
45962;SDS011;31669;49.892;20.818;2022-09-03T02:01:42;2.30;;;1.25;;
45962;SDS011;31669;49.892;20.818;2022-09-03T02:06:44;2.95;;;1.88;;
45962;SDS011;31669;49.892;20.818;2022-09-03T02:11:48;2.80;;;1.45;;
45962;SDS011;31669;49.892;20.818;2022-09-03T02:16:50;2.17;;;1.20;;
45962;SDS011;31669;49.892;20.818;2022-09-03T02:21:51;4.67;;;1.43;;
45962;SDS011;31669;49.892;20.818;2022-09-03T02:26:52;1.50;;;0.90;;
45962;SDS011;31669;49.892;20.818;2022-09-03T02:31:53;2.50;;;1.55;;
45962;SDS011;31669;49.892;20.818;2022-09-03T02:36:54;1.60;;;1.50;;
45962;SDS011;31669;49.892;20.818;2022-09-03T02:41:55;2.47;;;1.77;;
45962;SDS011;31669;49.892;20.818;2022-09-03T02:46:57;6.53;;;1.75;;
45962;SDS011;31669;49.892;20.818;2022-09-03T02:51:59;2.97;;;1.52;;
45962;SDS011;31669;49.892;20.818;2022-09-03T02:57:00;2.15;;;1.35;;
45962;SDS011;31669;49.892;20.818;2022-09-03T03:02:02;3.67;;;1.65;;
45962;SDS011;31669;49.892;20.818;2022-09-03T03:12:03;4.97;;;1.65;;
45962;SDS011;31669;49.892;20.818;2022-09-03T03:17:04;1.92;;;1.75;;
45962;SDS011;31669;49.892;20.818;2022-09-03T03:22:05;2.77;;;1.33;;
45962;SDS011;31669;49.892;20.818;2022-09-03T03:27:05;3.67;;;2.27;;
45962;SDS011;31669;49.892;20.818;2022-09-03T03:32:07;4.35;;;1.60;;
45962;SDS011;31669;49.892;20.818;2022-09-03T03:37:07;4.47;;;1.60;;
45962;SDS011;31669;49.892;20.818;2022-09-03T03:42:08;3.00;;;2.13;;
45962;SDS011;31669;49.892;20.818;2022-09-03T03:47:08;4.70;;;1.20;;
45962;SDS011;31669;49.892;20.818;2022-09-03T03:52:09;3.73;;;1.67;;
45962;SDS011;31669;49.892;20.818;2022-09-03T03:57:09;6.63;;;1.93;;
45962;SDS011;31669;49.892;20.818;2022-09-03T04:02:10;6.50;;;2.33;;
45962;SDS011;31669;49.892;20.818;2022-09-03T04:07:11;6.78;;;1.52;;
45962;SDS011;31669;49.892;20.818;2022-09-03T04:12:12;4.17;;;1.73;;
45962;SDS011;31669;49.892;20.818;2022-09-03T04:17:12;4.20;;;1.57;;
45962;SDS011;31669;49.892;20.818;2022-09-03T04:22:14;3.33;;;1.92;;
45962;SDS011;31669;49.892;20.818;2022-09-03T04:27:15;1.70;;;1.50;;
45962;SDS011;31669;49.892;20.818;2022-09-03T04:32:15;2.23;;;1.63;;
45962;SDS011;31669;49.892;20.818;2022-09-03T04:37:34;2.47;;;1.48;;
45962;SDS011;31669;49.892;20.818;2022-09-03T04:42:35;2.93;;;1.77;;
45962;SDS011;31669;49.892;20.818;2022-09-03T04:47:35;2.63;;;1.83;;
45962;SDS011;31669;49.892;20.818;2022-09-03T04:52:36;1.52;;;1.33;;
45962;SDS011;31669;49.892;20.818;2022-09-03T04:57:37;4.63;;;2.25;;
45962;SDS011;31669;49.892;20.818;2022-09-03T05:02:38;4.83;;;2.00;;
45962;SDS011;31669;49.892;20.818;2022-09-03T05:07:38;5.93;;;2.43;;
45962;SDS011;31669;49.892;20.818;2022-09-03T05:12:40;3.90;;;1.85;;
45962;SDS011;31669;49.892;20.818;2022-09-03T05:17:40;3.23;;;1.87;;
45962;SDS011;31669;49.892;20.818;2022-09-03T05:22:41;3.00;;;1.67;;
45962;SDS011;31669;49.892;20.818;2022-09-03T05:27:41;4.27;;;1.47;;
45962;SDS011;31669;49.892;20.818;2022-09-03T05:32:42;5.20;;;1.77;;
45962;SDS011;31669;49.892;20.818;2022-09-03T05:37:43;4.37;;;2.37;;
45962;SDS011;31669;49.892;20.818;2022-09-03T05:42:44;4.82;;;2.08;;
45962;SDS011;31669;49.892;20.818;2022-09-03T05:47:44;7.07;;;1.87;;
45962;SDS011;31669;49.892;20.818;2022-09-03T05:52:44;3.33;;;1.60;;
45962;SDS011;31669;49.892;20.818;2022-09-03T05:57:50;4.13;;;2.03;;
45962;SDS011;31669;49.892;20.818;2022-09-03T06:02:51;2.55;;;1.90;;
45962;SDS011;31669;49.892;20.818;2022-09-03T06:07:51;2.08;;;1.48;;
45962;SDS011;31669;49.892;20.818;2022-09-03T06:12:52;3.03;;;2.00;;
45962;SDS011;31669;49.892;20.818;2022-09-03T06:17:53;5.07;;;2.27;;
45962;SDS011;31669;49.892;20.818;2022-09-03T06:22:54;2.53;;;1.70;;
45962;SDS011;31669;49.892;20.818;2022-09-03T06:27:54;4.72;;;2.40;;
45962;SDS011;31669;49.892;20.818;2022-09-03T06:32:54;1.67;;;1.50;;
45962;SDS011;31669;49.892;20.818;2022-09-03T06:37:55;6.70;;;2.17;;
45962;SDS011;31669;49.892;20.818;2022-09-03T06:42:58;3.70;;;2.15;;
45962;SDS011;31669;49.892;20.818;2022-09-03T06:48:01;6.18;;;2.30;;
45962;SDS011;31669;49.892;20.818;2022-09-03T06:53:01;3.70;;;2.50;;
45962;SDS011;31669;49.892;20.818;2022-09-03T06:58:02;4.07;;;2.50;;
45962;SDS011;31669;49.892;20.818;2022-09-03T07:03:02;4.20;;;2.07;;
45962;SDS011;31669;49.892;20.818;2022-09-03T07:08:03;5.37;;;2.57;;
45962;SDS011;31669;49.892;20.818;2022-09-03T07:13:04;6.43;;;2.20;;
45962;SDS011;31669;49.892;20.818;2022-09-03T07:18:07;5.05;;;2.78;;
45962;SDS011;31669;49.892;20.818;2022-09-03T07:23:08;4.07;;;2.23;;
45962;SDS011;31669;49.892;20.818;2022-09-03T07:28:08;5.53;;;2.60;;
45962;SDS011;31669;49.892;20.818;2022-09-03T07:33:09;2.60;;;1.90;;
45962;SDS011;31669;49.892;20.818;2022-09-03T07:38:09;4.33;;;2.87;;
45962;SDS011;31669;49.892;20.818;2022-09-03T07:43:10;18.73;;;8.05;;
45962;SDS011;31669;49.892;20.818;2022-09-03T07:48:11;9.87;;;3.47;;
45962;SDS011;31669;49.892;20.818;2022-09-03T07:53:12;8.88;;;2.53;;
45962;SDS011;31669;49.892;20.818;2022-09-03T07:58:13;5.50;;;2.80;;
45962;SDS011;31669;49.892;20.818;2022-09-03T08:03:13;9.63;;;5.73;;
45962;SDS011;31669;49.892;20.818;2022-09-03T08:08:14;7.50;;;4.83;;
45962;SDS011;31669;49.892;20.818;2022-09-03T08:13:14;2.90;;;2.47;;
45962;SDS011;31669;49.892;20.818;2022-09-03T08:18:15;4.27;;;2.23;;
45962;SDS011;31669;49.892;20.818;2022-09-03T08:23:15;4.13;;;1.70;;
45962;SDS011;31669;49.892;20.818;2022-09-03T08:28:16;2.13;;;1.70;;
45962;SDS011;31669;49.892;20.818;2022-09-03T08:33:16;3.83;;;2.83;;
45962;SDS011;31669;49.892;20.818;2022-09-03T08:38:36;6.47;;;3.03;;
45962;SDS011;31669;49.892;20.818;2022-09-03T08:43:42;4.47;;;1.65;;
45962;SDS011;31669;49.892;20.818;2022-09-03T08:48:46;4.15;;;2.13;;
45962;SDS011;31669;49.892;20.818;2022-09-03T08:53:51;3.25;;;1.67;;
45962;SDS011;31669;49.892;20.818;2022-09-03T08:58:54;2.05;;;1.75;;
45962;SDS011;31669;49.892;20.818;2022-09-03T09:04:06;4.90;;;2.53;;
45962;SDS011;31669;49.892;20.818;2022-09-03T09:14:18;4.00;;;2.00;;
45962;SDS011;31669;49.892;20.818;2022-09-03T09:19:25;2.70;;;1.67;;
45962;SDS011;31669;49.892;20.818;2022-09-03T09:24:38;4.18;;;2.35;;
45962;SDS011;31669;49.892;20.818;2022-09-03T09:29:40;4.85;;;2.28;;
45962;SDS011;31669;49.892;20.818;2022-09-03T09:34:40;5.87;;;1.73;;
45962;SDS011;31669;49.892;20.818;2022-09-03T09:39:52;3.73;;;1.47;;
45962;SDS011;31669;49.892;20.818;2022-09-03T09:44:53;2.67;;;1.80;;
45962;SDS011;31669;49.892;20.818;2022-09-03T09:49:55;4.55;;;2.28;;
45962;SDS011;31669;49.892;20.818;2022-09-03T09:55:06;3.10;;;1.83;;
45962;SDS011;31669;49.892;20.818;2022-09-03T10:00:09;1.98;;;1.30;;
45962;SDS011;31669;49.892;20.818;2022-09-03T10:05:30;4.90;;;1.80;;
45962;SDS011;31669;49.892;20.818;2022-09-03T10:10:33;1.43;;;1.10;;
45962;SDS011;31669;49.892;20.818;2022-09-03T10:26:23;3.08;;;1.58;;
45962;SDS011;31669;49.892;20.818;2022-09-03T10:31:43;5.25;;;1.33;;
45962;SDS011;31669;49.892;20.818;2022-09-03T10:57:50;2.93;;;1.83;;
45962;SDS011;31669;49.892;20.818;2022-09-03T11:08:19;3.05;;;2.00;;
45962;SDS011;31669;49.892;20.818;2022-09-03T11:13:23;1.67;;;1.08;;
45962;SDS011;31669;49.892;20.818;2022-09-03T11:23:27;7.23;;;2.23;;
45962;SDS011;31669;49.892;20.818;2022-09-03T11:33:50;2.30;;;1.50;;
45962;SDS011;31669;49.892;20.818;2022-09-03T11:38:53;3.88;;;2.33;;
45962;SDS011;31669;49.892;20.818;2022-09-03T11:43:54;2.83;;;2.00;;
45962;SDS011;31669;49.892;20.818;2022-09-03T11:49:10;3.13;;;1.63;;
45962;SDS011;31669;49.892;20.818;2022-09-03T12:04:13;2.87;;;1.37;;
45962;SDS011;31669;49.892;20.818;2022-09-03T12:14:33;4.22;;;2.22;;
45962;SDS011;31669;49.892;20.818;2022-09-03T12:19:38;3.70;;;1.60;;
45962;SDS011;31669;49.892;20.818;2022-09-03T12:24:40;2.70;;;1.80;;
45962;SDS011;31669;49.892;20.818;2022-09-03T12:29:54;2.13;;;1.58;;
45962;SDS011;31669;49.892;20.818;2022-09-03T12:34:57;2.88;;;1.70;;
45962;SDS011;31669;49.892;20.818;2022-09-03T12:39:58;1.15;;;1.05;;
45962;SDS011;31669;49.892;20.818;2022-09-03T12:45:05;1.53;;;1.20;;
45962;SDS011;31669;49.892;20.818;2022-09-03T12:50:08;1.63;;;1.45;;
45962;SDS011;31669;49.892;20.818;2022-09-03T13:00:28;2.35;;;1.25;;
45962;SDS011;31669;49.892;20.818;2022-09-03T13:10:31;3.05;;;1.48;;
45962;SDS011;31669;49.892;20.818;2022-09-03T13:15:32;4.72;;;1.63;;
45962;SDS011;31669;49.892;20.818;2022-09-03T13:31:05;3.10;;;1.10;;
45962;SDS011;31669;49.892;20.818;2022-09-03T13:36:15;5.55;;;1.20;;
45962;SDS011;31669;49.892;20.818;2022-09-03T13:46:47;3.28;;;1.30;;
45962;SDS011;31669;49.892;20.818;2022-09-03T13:51:52;2.15;;;1.60;;
45962;SDS011;31669;49.892;20.818;2022-09-03T13:56:58;1.88;;;1.00;;
45962;SDS011;31669;49.892;20.818;2022-09-03T14:07:47;0.88;;;0.88;;
45962;SDS011;31669;49.892;20.818;2022-09-03T14:12:32;2.25;;;1.75;;
45962;SDS011;31669;49.892;20.818;2022-09-03T14:22:58;2.28;;;1.80;;
45962;SDS011;31669;49.892;20.818;2022-09-03T14:28:27;6.80;;;2.60;;
45962;SDS011;31669;49.892;20.818;2022-09-03T14:38:36;5.43;;;1.92;;
45962;SDS011;31669;49.892;20.818;2022-09-03T14:54:10;2.42;;;1.52;;
45962;SDS011;31669;49.892;20.818;2022-09-03T15:09:41;2.30;;;1.48;;
45962;SDS011;31669;49.892;20.818;2022-09-03T15:14:53;4.47;;;1.50;;
45962;SDS011;31669;49.892;20.818;2022-09-03T15:40:51;1.42;;;1.25;;
45962;SDS011;31669;49.892;20.818;2022-09-03T15:45:58;2.17;;;1.23;;
45962;SDS011;31669;49.892;20.818;2022-09-03T16:06:26;2.30;;;1.23;;
45962;SDS011;31669;49.892;20.818;2022-09-03T16:22:21;2.95;;;1.55;;
45962;SDS011;31669;49.892;20.818;2022-09-03T16:27:27;2.97;;;1.65;;
45962;SDS011;31669;49.892;20.818;2022-09-03T16:32:34;3.47;;;2.17;;
45962;SDS011;31669;49.892;20.818;2022-09-03T16:53:27;3.28;;;2.08;;
45962;SDS011;31669;49.892;20.818;2022-09-03T16:58:32;3.25;;;1.75;;
45962;SDS011;31669;49.892;20.818;2022-09-03T17:50:43;2.90;;;2.33;;
45962;SDS011;31669;49.892;20.818;2022-09-03T17:55:58;2.88;;;1.90;;
45962;SDS011;31669;49.892;20.818;2022-09-03T18:01:35;3.47;;;1.45;;
45962;SDS011;31669;49.892;20.818;2022-09-03T18:11:47;3.95;;;1.50;;
45962;SDS011;31669;49.892;20.818;2022-09-03T18:21:49;2.17;;;1.80;;
45962;SDS011;31669;49.892;20.818;2022-09-03T18:27:11;1.60;;;1.35;;
45962;SDS011;31669;49.892;20.818;2022-09-03T18:32:32;4.18;;;1.85;;
45962;SDS011;31669;49.892;20.818;2022-09-03T18:37:51;7.63;;;2.15;;
45962;SDS011;31669;49.892;20.818;2022-09-03T18:48:55;4.72;;;2.75;;
45962;SDS011;31669;49.892;20.818;2022-09-03T19:05:24;5.03;;;2.25;;
45962;SDS011;31669;49.892;20.818;2022-09-03T19:10:52;3.63;;;2.33;;
45962;SDS011;31669;49.892;20.818;2022-09-03T19:16:18;7.50;;;2.85;;
45962;SDS011;31669;49.892;20.818;2022-09-03T19:21:42;11.25;;;3.00;;
45962;SDS011;31669;49.892;20.818;2022-09-03T19:32:24;7.28;;;2.33;;
45962;SDS011;31669;49.892;20.818;2022-09-03T19:37:49;4.10;;;2.25;;
45962;SDS011;31669;49.892;20.818;2022-09-03T19:43:16;3.05;;;2.03;;
45962;SDS011;31669;49.892;20.818;2022-09-03T19:54:17;3.42;;;2.63;;
45962;SDS011;31669;49.892;20.818;2022-09-03T19:59:39;6.55;;;2.95;;
45962;SDS011;31669;49.892;20.818;2022-09-03T20:04:59;5.50;;;3.15;;
45962;SDS011;31669;49.892;20.818;2022-09-03T20:10:18;5.00;;;3.05;;
45962;SDS011;31669;49.892;20.818;2022-09-03T20:15:24;5.03;;;2.83;;
45962;SDS011;31669;49.892;20.818;2022-09-03T20:20:47;8.30;;;2.33;;
45962;SDS011;31669;49.892;20.818;2022-09-03T20:26:04;3.47;;;2.72;;
45962;SDS011;31669;49.892;20.818;2022-09-03T20:31:15;7.93;;;3.13;;
45962;SDS011;31669;49.892;20.818;2022-09-03T20:46:52;6.07;;;3.33;;
45962;SDS011;31669;49.892;20.818;2022-09-03T20:52:00;6.35;;;3.55;;
45962;SDS011;31669;49.892;20.818;2022-09-03T20:57:08;7.07;;;4.05;;
45962;SDS011;31669;49.892;20.818;2022-09-03T21:07:38;7.43;;;3.17;;
45962;SDS011;31669;49.892;20.818;2022-09-03T21:12:43;8.43;;;3.67;;
45962;SDS011;31669;49.892;20.818;2022-09-03T21:23:18;4.55;;;2.50;;
45962;SDS011;31669;49.892;20.818;2022-09-03T21:28:26;3.28;;;2.72;;
45962;SDS011;31669;49.892;20.818;2022-09-03T21:33:28;9.20;;;4.47;;
45962;SDS011;31669;49.892;20.818;2022-09-03T21:38:32;5.93;;;2.75;;
45962;SDS011;31669;49.892;20.818;2022-09-03T21:43:35;4.18;;;3.35;;
45962;SDS011;31669;49.892;20.818;2022-09-03T21:48:38;7.78;;;3.53;;
45962;SDS011;31669;49.892;20.818;2022-09-03T21:53:47;10.20;;;3.58;;
45962;SDS011;31669;49.892;20.818;2022-09-03T21:58:59;7.13;;;3.63;;
45962;SDS011;31669;49.892;20.818;2022-09-03T22:04:01;3.95;;;3.17;;
45962;SDS011;31669;49.892;20.818;2022-09-03T22:09:10;6.03;;;3.60;;
45962;SDS011;31669;49.892;20.818;2022-09-03T22:14:13;8.00;;;3.15;;
45962;SDS011;31669;49.892;20.818;2022-09-03T22:19:15;7.57;;;3.92;;
45962;SDS011;31669;49.892;20.818;2022-09-03T22:39:33;3.13;;;2.67;;
45962;SDS011;31669;49.892;20.818;2022-09-03T22:49:50;5.85;;;3.13;;
45962;SDS011;31669;49.892;20.818;2022-09-03T23:00:02;4.15;;;2.80;;
45962;SDS011;31669;49.892;20.818;2022-09-03T23:05:08;5.90;;;3.85;;
45962;SDS011;31669;49.892;20.818;2022-09-03T23:10:10;6.13;;;3.35;;
45962;SDS011;31669;49.892;20.818;2022-09-03T23:15:21;4.47;;;2.92;;
45962;SDS011;31669;49.892;20.818;2022-09-03T23:20:23;4.00;;;2.47;;
45962;SDS011;31669;49.892;20.818;2022-09-03T23:25:32;6.63;;;3.50;;
45962;SDS011;31669;49.892;20.818;2022-09-03T23:30:35;6.00;;;3.53;;
45962;SDS011;31669;49.892;20.818;2022-09-03T23:35:44;7.40;;;2.80;;
45962;SDS011;31669;49.892;20.818;2022-09-03T23:40:47;4.78;;;2.88;;
45962;SDS011;31669;49.892;20.818;2022-09-03T23:51:14;5.38;;;2.60;;
